createdAt,value
2023-05-15T00:02:20.418Z,100617.41
2023-05-15T00:04:51.919Z,100632.41
2023-05-15T00:07:23.235Z,100622.84
2023-05-15T00:09:54.594Z,100627.34
2023-05-15T00:12:26.129Z,100599.47
2023-05-15T00:14:57.452Z,100610.06
2023-05-15T00:17:28.750Z,100600.53
2023-05-15T00:20:00.390Z,100604.13
2023-05-15T00:22:31.739Z,100601.59
2023-05-15T00:25:03.315Z,100586.69
2023-05-15T00:27:34.656Z,100612.25
2023-05-15T00:30:06.819Z,100570.25
2023-05-15T00:32:38.119Z,100604.59
2023-05-15T00:35:09.554Z,100586.28
2023-05-15T00:37:40.916Z,100595.84
2023-05-15T00:40:18.622Z,100579.41
2023-05-15T00:42:51.002Z,100572.47
2023-05-15T00:45:24.678Z,100574.28
2023-05-15T00:47:57.952Z,100605.97
2023-05-15T00:50:30.218Z,100599.81
2023-05-15T00:53:03.081Z,100587.69
2023-05-15T00:55:35.896Z,100571.88
2023-05-15T00:58:07.928Z,100587.59
2023-05-15T01:00:39.932Z,100563.13
2023-05-15T01:03:11.446Z,100584.16
2023-05-15T01:05:43.741Z,100566.75
2023-05-15T01:08:32.928Z,100552.78
2023-05-15T01:11:05.772Z,100560.75
2023-05-15T01:13:37.147Z,100561.78
2023-05-15T01:16:10.155Z,100550.44
2023-05-15T01:18:41.749Z,100577.59
2023-05-15T01:21:34.649Z,100573.19
2023-05-15T01:24:20.493Z,100578.56
2023-05-15T01:27:15.661Z,100555.81
2023-05-15T01:29:55.554Z,100581.34
2023-05-15T01:32:38.081Z,100560.34
2023-05-15T01:35:28.691Z,100565.59
2023-05-15T01:38:13.077Z,100564.75
2023-05-15T01:40:47.744Z,100560.47
2023-05-15T01:43:22.554Z,100568.34
2023-05-15T01:45:55.859Z,100550.84
2023-05-15T01:48:28.465Z,100555.22
2023-05-15T01:51:03.650Z,100559.63
2023-05-15T01:53:35.951Z,100545.72
2023-05-15T01:56:09.582Z,100555.47
2023-05-15T01:58:42.551Z,100547.47
2023-05-15T02:01:14.544Z,100552.75
2023-05-15T02:03:47.014Z,100517.63
2023-05-15T02:06:19.266Z,100539.56
2023-05-15T02:08:51.790Z,100522.03
2023-05-15T02:11:23.370Z,100532.59
2023-05-15T02:13:59.173Z,100538.66
2023-05-15T02:16:30.642Z,100525.59
2023-05-15T02:19:02.061Z,100539.50
2023-05-15T02:21:34.191Z,100536.84
2023-05-15T02:24:05.677Z,100542.13
2023-05-15T02:27:20.500Z,100546.53
2023-05-15T02:30:06.032Z,100538.69
2023-05-15T02:32:49.713Z,100549.28
2023-05-15T02:35:43.712Z,100530.84
2023-05-15T02:38:18.791Z,100539.59
2023-05-15T02:40:51.206Z,100541.38
2023-05-15T02:43:23.128Z,100528.25
2023-05-15T02:45:56.951Z,100517.78
2023-05-15T02:48:29.337Z,100530.94
2023-05-15T02:51:01.224Z,100538.84
2023-05-15T02:53:33.362Z,100541.56
2023-05-15T02:56:05.012Z,100530.16
2023-05-15T02:58:37.678Z,100531.16
2023-05-15T03:01:09.043Z,100532.06
2023-05-15T03:03:40.336Z,100519.97
2023-05-15T03:06:11.633Z,100520.91
2023-05-15T03:08:42.914Z,100535.88
2023-05-15T03:11:14.401Z,100526.22
2023-05-15T03:13:45.736Z,100523.69
2023-05-15T03:16:17.005Z,100528.91
2023-05-15T03:18:48.281Z,100507.03
2023-05-15T03:21:20.082Z,100517.50
2023-05-15T03:23:51.426Z,100514.03
2023-05-15T03:26:23.078Z,100507.13
2023-05-15T03:28:55.194Z,100522.91
2023-05-15T03:31:26.527Z,100512.34
2023-05-15T03:33:57.804Z,100521.19
2023-05-15T03:36:29.073Z,100513.25
2023-05-15T03:39:00.494Z,100517.69
2023-05-15T03:41:31.798Z,100517.66
2023-05-15T03:44:03.117Z,100513.25
2023-05-15T03:46:34.421Z,100513.25
2023-05-15T03:49:05.703Z,100509.72
2023-05-15T03:51:37.084Z,100508.78
2023-05-15T03:54:08.623Z,100518.44
2023-05-15T03:56:40.026Z,100514.91
2023-05-15T03:59:12.539Z,100515.69
2023-05-15T04:01:59.358Z,100516.50
2023-05-15T04:04:34.684Z,100509.34
2023-05-15T04:07:06.149Z,100507.47
2023-05-15T04:09:37.514Z,100510.03
2023-05-15T04:12:09.053Z,100507.25
2023-05-15T04:14:40.518Z,100503.66
2023-05-15T04:17:11.827Z,100465.03
2023-05-15T04:19:43.222Z,100501.56
2023-05-15T04:22:14.555Z,100500.47
2023-05-15T04:24:45.823Z,100504.63
2023-05-15T04:27:17.328Z,100484.25
2023-05-15T04:29:48.621Z,100506.84
2023-05-15T04:32:19.964Z,100486.47
2023-05-15T04:34:51.220Z,100503.75
2023-05-15T04:37:22.559Z,100488.66
2023-05-15T04:39:54.316Z,100500.63
2023-05-15T04:42:26.551Z,100497.72
2023-05-15T04:44:57.912Z,100507.25
2023-05-15T04:47:29.293Z,100499.03
2023-05-15T04:50:00.712Z,100497.03
2023-05-15T04:52:32.314Z,100495.78
2023-05-15T04:55:04.165Z,100481.53
2023-05-15T04:57:35.689Z,100497.03
2023-05-15T05:00:11.880Z,100494.06
2023-05-15T05:02:43.994Z,100496.34
2023-05-15T05:05:15.436Z,100466.34
2023-05-15T05:07:46.705Z,100496.63
2023-05-15T05:10:18.130Z,100470.91
2023-05-15T05:12:49.454Z,100492.31
2023-05-15T05:15:21.134Z,100492.84
2023-05-15T05:17:53.106Z,100487.25
2023-05-15T05:20:24.430Z,100493.75
2023-05-15T05:22:55.902Z,100476.81
2023-05-15T05:25:27.363Z,100498.22
2023-05-15T05:27:58.751Z,100485.38
2023-05-15T05:30:30.118Z,100493.72
2023-05-15T05:33:01.500Z,100497.69
2023-05-15T05:35:32.790Z,100494.56
2023-05-15T05:38:04.317Z,100495.06
2023-05-15T05:40:35.780Z,100491.16
2023-05-15T05:43:07.189Z,100489.78
2023-05-15T05:45:38.615Z,100482.22
2023-05-15T05:48:09.988Z,100495.00
2023-05-15T05:50:42.222Z,100491.00
2023-05-15T05:53:13.589Z,100488.75
2023-05-15T05:55:45.102Z,100487.47
2023-05-15T05:58:24.837Z,100481.09
2023-05-15T06:00:57.314Z,100486.72
2023-05-15T06:03:28.812Z,100484.44
2023-05-15T06:06:00.729Z,100487.47
2023-05-15T06:08:34.988Z,100477.72
2023-05-15T06:11:13.927Z,100479.59
2023-05-15T06:13:51.157Z,100473.63
2023-05-15T06:16:22.618Z,100481.38
2023-05-15T06:18:54.084Z,100470.63
2023-05-15T06:21:27.309Z,100480.59
2023-05-15T06:23:58.637Z,100485.97
2023-05-15T06:26:36.944Z,100476.88
2023-05-15T06:29:08.360Z,100481.66
2023-05-15T06:31:39.849Z,100479.38
2023-05-15T06:34:13.310Z,100473.84
2023-05-15T06:36:44.931Z,100477.97
2023-05-15T06:39:16.251Z,100473.31
2023-05-15T06:41:47.607Z,100475.28
2023-05-15T06:44:18.942Z,100476.06
2023-05-15T06:46:50.438Z,100474.59
2023-05-15T06:49:22.300Z,100452.13
2023-05-15T06:51:54.977Z,100464.97
2023-05-15T06:54:26.309Z,100484.03
2023-05-15T06:56:57.681Z,100454.97
2023-05-15T06:59:29.090Z,100478.00
2023-05-15T07:02:00.474Z,100462.50
2023-05-15T07:04:31.956Z,100480.03
2023-05-15T07:07:03.472Z,100459.47
2023-05-15T07:09:35.448Z,100459.94
2023-05-15T07:12:07.151Z,100464.28
2023-05-15T07:14:38.595Z,100455.13
2023-05-15T07:17:10.045Z,100459.94
2023-05-15T07:19:41.475Z,100459.47
2023-05-15T07:22:12.820Z,100451.38
2023-05-15T07:24:44.240Z,100450.41
2023-05-15T07:27:15.565Z,100451.28
2023-05-15T07:29:46.948Z,100430.38
2023-05-15T07:32:18.301Z,100444.97
2023-05-15T07:34:49.949Z,100433.97
2023-05-15T07:37:21.810Z,100433.84
2023-05-15T07:39:53.268Z,100438.16
2023-05-15T07:42:25.573Z,100431.41
2023-05-15T07:44:57.073Z,100421.00
2023-05-15T07:47:28.626Z,100429.66
2023-05-15T07:50:00.265Z,100431.34
2023-05-15T07:52:31.620Z,100429.69
2023-05-15T07:55:03.946Z,100419.03
2023-05-15T07:57:35.642Z,100418.72
2023-05-15T08:00:12.499Z,100423.84
2023-05-15T08:02:46.211Z,100425.13
2023-05-15T08:05:17.889Z,100417.47
2023-05-15T08:07:49.214Z,100426.44
2023-05-15T08:10:20.626Z,100421.13
2023-05-15T08:12:51.984Z,100417.03
2023-05-15T08:15:25.281Z,100409.78
2023-05-15T08:17:56.932Z,100415.00
2023-05-15T08:20:28.312Z,100421.91
2023-05-15T08:22:59.654Z,100416.06
2023-05-15T08:25:31.200Z,100411.94
2023-05-15T08:28:04.047Z,100404.97
2023-05-15T08:30:36.081Z,100402.25
2023-05-15T08:33:07.553Z,100379.00
2023-05-15T08:35:38.982Z,100407.78
2023-05-15T08:38:10.386Z,100411.25
2023-05-15T08:40:46.561Z,100419.56
2023-05-15T08:43:18.318Z,100403.75
2023-05-15T08:45:50.043Z,100395.31
2023-05-15T08:48:25.943Z,100392.72
2023-05-15T08:50:58.548Z,100403.09
2023-05-15T08:53:30.801Z,100383.50
2023-05-15T08:56:02.711Z,100378.97
2023-05-15T08:58:34.248Z,100373.47
2023-05-15T09:01:06.311Z,100373.47
2023-05-15T09:03:37.805Z,100403.31
2023-05-15T09:06:10.115Z,100392.03
2023-05-15T09:08:43.160Z,100379.25
2023-05-15T09:11:16.144Z,100369.94
2023-05-15T09:13:47.504Z,100384.22
2023-05-15T09:16:21.101Z,100375.81
2023-05-15T09:18:53.782Z,100377.53
2023-05-15T09:21:34.328Z,100386.03
2023-05-15T09:24:28.165Z,100385.28
2023-05-15T09:27:07.506Z,100377.94
2023-05-15T09:29:39.863Z,100388.13
2023-05-15T09:32:14.122Z,100374.41
2023-05-15T09:34:46.150Z,100374.75
2023-05-15T09:37:32.545Z,100381.50
2023-05-15T09:40:11.097Z,100383.22
2023-05-15T09:42:42.540Z,100366.56
2023-05-15T09:45:18.390Z,100360.69
2023-05-15T09:47:49.948Z,100370.72
2023-05-15T09:50:25.606Z,100378.84
2023-05-15T09:52:59.346Z,100354.03
2023-05-15T09:55:34.782Z,100367.22
2023-05-15T09:58:11.993Z,100365.03
2023-05-15T10:00:48.568Z,100366.50
2023-05-15T10:03:21.280Z,100364.56
2023-05-15T10:05:59.911Z,100356.66
2023-05-15T10:08:31.313Z,100351.59
2023-05-15T10:11:04.447Z,100355.44
2023-05-15T10:13:36.896Z,100358.84
2023-05-15T10:16:08.457Z,100352.31
2023-05-15T10:18:41.467Z,100333.63
2023-05-15T10:21:13.674Z,100356.19
2023-05-15T10:23:46.584Z,100357.38
2023-05-15T10:26:26.940Z,100356.91
2023-05-15T10:29:00.976Z,100355.78
2023-05-15T10:31:33.680Z,100325.84
2023-05-15T10:34:05.851Z,100348.09
2023-05-15T10:36:38.451Z,100337.34
2023-05-15T10:39:10.202Z,100348.44
2023-05-15T10:41:42.720Z,100325.66
2023-05-15T10:44:14.664Z,100341.19
2023-05-15T10:46:46.962Z,100338.34
2023-05-15T10:49:18.432Z,100334.78
2023-05-15T10:51:49.972Z,100349.53
2023-05-15T10:54:22.503Z,100332.03
2023-05-15T10:56:55.991Z,100335.34
2023-05-15T10:59:32.696Z,100331.19
2023-05-15T11:02:39.381Z,100323.91
2023-05-15T11:05:12.119Z,100341.91
2023-05-15T11:07:43.468Z,100334.53
2023-05-15T11:10:29.801Z,100323.66
2023-05-15T11:13:02.250Z,100316.53
2023-05-15T11:15:44.626Z,100316.00
2023-05-15T11:18:16.445Z,100316.75
2023-05-15T11:20:51.898Z,100314.53
2023-05-15T11:23:25.426Z,100268.69
2023-05-15T11:25:57.456Z,100308.13
2023-05-15T11:28:30.761Z,100305.44
2023-05-15T11:31:06.536Z,100297.53
2023-05-15T11:33:39.129Z,100302.44
2023-05-15T11:36:15.706Z,100277.31
2023-05-15T11:38:50.815Z,100301.19
2023-05-15T11:41:24.817Z,100304.50
2023-05-15T11:43:57.075Z,100293.03
2023-05-15T11:46:29.347Z,100269.66
2023-05-15T11:49:01.312Z,100294.41
2023-05-15T11:51:33.475Z,100294.78
2023-05-15T11:54:06.950Z,100275.31
2023-05-15T11:56:46.895Z,100262.47
2023-05-15T11:59:21.040Z,100282.00
2023-05-15T12:01:52.547Z,100275.03
2023-05-15T12:04:23.970Z,100283.00
2023-05-15T12:06:55.400Z,100274.97
2023-05-15T12:09:28.222Z,100266.38
2023-05-15T12:11:59.659Z,100256.84
2023-05-15T12:14:31.551Z,100267.56
2023-05-15T12:17:04.359Z,100257.41
2023-05-15T12:19:37.969Z,100273.75
2023-05-15T12:22:09.502Z,100273.19
2023-05-15T12:24:41.652Z,100264.22
2023-05-15T12:27:13.586Z,100263.16
2023-05-15T12:29:45.721Z,100262.00
2023-05-15T12:32:17.509Z,100269.03
2023-05-15T12:34:49.355Z,100249.38
2023-05-15T12:37:21.324Z,100267.16
2023-05-15T12:39:59.903Z,100247.91
2023-05-15T12:42:31.349Z,100248.19
2023-05-15T12:45:02.808Z,100259.50
2023-05-15T12:47:34.162Z,100235.59
2023-05-15T12:50:18.542Z,100244.75
2023-05-15T12:52:49.848Z,100254.69
2023-05-15T12:55:28.923Z,100262.53
2023-05-15T12:58:06.949Z,100252.06
2023-05-15T13:00:40.945Z,100258.34
2023-05-15T13:03:13.545Z,100249.47
2023-05-15T13:05:45.669Z,100260.41
2023-05-15T13:08:18.430Z,100264.25
2023-05-15T13:10:56.882Z,100227.16
2023-05-15T13:13:43.052Z,100245.59
2023-05-15T13:16:22.495Z,100231.88
2023-05-15T13:18:53.992Z,100249.19
2023-05-15T13:21:25.974Z,100265.03
2023-05-15T13:23:57.408Z,100271.88
2023-05-15T13:26:28.688Z,100280.75
2023-05-15T13:29:01.469Z,100269.59
2023-05-15T13:31:32.905Z,100268.94
2023-05-15T13:34:04.313Z,100268.31
2023-05-15T13:36:38.620Z,100275.22
2023-05-15T13:39:10.164Z,100264.25
2023-05-15T13:41:41.524Z,100270.03
2023-05-15T13:44:12.936Z,100266.44
2023-05-15T13:46:44.343Z,100274.72
2023-05-15T13:49:15.734Z,100263.53
2023-05-15T13:51:47.025Z,100272.75
2023-05-15T13:54:18.389Z,100261.31
2023-05-15T13:56:49.739Z,100263.16
2023-05-15T13:59:21.152Z,100267.22
2023-05-15T14:01:52.565Z,100271.34
2023-05-15T14:04:23.932Z,100248.38
2023-05-15T14:06:55.378Z,100255.81
2023-05-15T14:09:26.753Z,100262.38
2023-05-15T14:11:58.174Z,100256.72
2023-05-15T14:14:29.476Z,100270.78
2023-05-15T14:17:01.042Z,100236.84
2023-05-15T14:19:32.539Z,100274.16
2023-05-15T14:22:03.982Z,100279.78
2023-05-15T14:24:35.306Z,100292.09
2023-05-15T14:27:06.758Z,100285.66
2023-05-15T14:29:39.713Z,100279.22
2023-05-15T14:32:11.148Z,100290.06
2023-05-15T14:34:42.522Z,100266.03
2023-05-15T14:37:14.222Z,100280.53
2023-05-15T14:39:45.594Z,100282.69
2023-05-15T14:42:17.320Z,100278.13
2023-05-15T14:44:49.306Z,100289.81
2023-05-15T14:47:20.789Z,100281.72
2023-05-15T14:49:52.240Z,100290.78
2023-05-15T14:52:23.521Z,100291.00
2023-05-15T14:55:08.066Z,100280.13
2023-05-15T14:57:40.855Z,100294.81
2023-05-15T15:00:13.289Z,100280.53
2023-05-15T15:02:46.211Z,100262.09
2023-05-15T15:05:18.567Z,100285.59
2023-05-15T15:08:00.772Z,100284.38
2023-05-15T15:10:33.883Z,100276.94
2023-05-15T15:13:06.329Z,100269.81
2023-05-15T15:15:37.701Z,100296.59
2023-05-15T15:18:09.114Z,100289.34
2023-05-15T15:20:41.435Z,100295.03
2023-05-15T15:23:12.794Z,100300.44
2023-05-15T15:25:44.134Z,100300.41
2023-05-15T15:28:15.546Z,100299.22
2023-05-15T15:30:46.897Z,100303.75
2023-05-15T15:33:18.265Z,100308.50
2023-05-15T15:35:49.685Z,100294.09
2023-05-15T15:38:21.281Z,100315.38
2023-05-15T15:40:52.570Z,100321.28
2023-05-15T15:43:23.832Z,100322.78
2023-05-15T15:45:55.254Z,100328.72
2023-05-15T15:48:26.694Z,100318.78
2023-05-15T15:50:58.176Z,100308.63
2023-05-15T15:53:33.937Z,100335.59
2023-05-15T15:56:06.519Z,100312.38
2023-05-15T15:58:37.783Z,100333.06
2023-05-15T16:01:09.225Z,100339.97
2023-05-15T16:03:40.624Z,100333.53
2023-05-15T16:06:12.086Z,100329.41
2023-05-15T16:08:43.358Z,100338.06
2023-05-15T16:11:16.317Z,100331.81
2023-05-15T16:13:47.623Z,100323.63
2023-05-15T16:16:18.990Z,100345.56
2023-05-15T16:18:50.363Z,100320.13
2023-05-15T16:21:21.661Z,100322.75
2023-05-15T16:23:52.964Z,100319.13
2023-05-15T16:26:24.248Z,100307.53
2023-05-15T16:28:56.890Z,100312.13
2023-05-15T16:31:28.365Z,100327.66
2023-05-15T16:34:02.834Z,100329.75
2023-05-15T16:36:35.484Z,100318.13
2023-05-15T16:39:07.838Z,100315.88
2023-05-15T16:41:39.103Z,100313.53
2023-05-15T16:44:13.066Z,100331.47
2023-05-15T16:46:44.591Z,100339.06
2023-05-15T16:49:15.950Z,100337.19
2023-05-15T16:51:47.221Z,100335.00
2023-05-15T16:54:19.124Z,100324.78
2023-05-15T16:56:50.447Z,100337.25
2023-05-15T16:59:21.722Z,100340.72
2023-05-15T17:01:53.312Z,100355.22
2023-05-15T17:04:24.735Z,100331.63
2023-05-15T17:06:56.002Z,100364.66
2023-05-15T17:09:27.257Z,100338.09
2023-05-15T17:11:59.628Z,100363.50
2023-05-15T17:14:31.008Z,100379.75
2023-05-15T17:17:02.392Z,100385.53
2023-05-15T17:19:34.609Z,100378.00
2023-05-15T17:22:05.980Z,100388.44
2023-05-15T17:24:50.013Z,100392.34
2023-05-15T17:27:22.823Z,100391.81
2023-05-15T17:29:54.322Z,100392.75
2023-05-15T17:32:25.812Z,100394.56
2023-05-15T17:34:57.199Z,100397.97
2023-05-15T17:37:28.608Z,100400.22
2023-05-15T17:40:00.267Z,100406.94
2023-05-15T17:42:31.788Z,100390.00
2023-05-15T17:45:04.071Z,100414.09
2023-05-15T17:47:35.411Z,100416.22
2023-05-15T17:50:07.489Z,100420.91
2023-05-15T17:52:38.949Z,100421.19
2023-05-15T17:55:10.539Z,100414.03
2023-05-15T17:57:41.944Z,100417.91
2023-05-15T18:00:13.794Z,100406.00
2023-05-15T18:02:45.189Z,100413.41
2023-05-15T18:05:17.170Z,100436.13
2023-05-15T18:07:48.481Z,100438.63
2023-05-15T18:10:19.855Z,100406.28
2023-05-15T18:12:51.320Z,100428.84
2023-05-15T18:15:22.733Z,100430.44
2023-05-15T18:17:54.150Z,100435.03
2023-05-15T18:20:25.533Z,100427.28
2023-05-15T18:22:57.238Z,100411.34
2023-05-15T18:25:28.774Z,100444.97
2023-05-15T18:28:00.216Z,100452.47
2023-05-15T18:30:31.710Z,100450.34
2023-05-15T18:33:03.234Z,100452.47
2023-05-15T18:35:35.111Z,100458.97
2023-05-15T18:38:06.887Z,100460.19
2023-05-15T18:40:38.200Z,100471.09
2023-05-15T18:43:09.557Z,100454.78
2023-05-15T18:45:41.281Z,100468.97
2023-05-15T18:48:12.643Z,100476.22
2023-05-15T18:50:44.104Z,100486.13
2023-05-15T18:53:15.547Z,100465.44
2023-05-15T18:55:47.072Z,100468.38
2023-05-15T18:58:18.372Z,100494.31
2023-05-15T19:00:49.767Z,100480.75
2023-05-15T19:03:21.141Z,100498.28
2023-05-15T19:05:52.668Z,100489.03
2023-05-15T19:08:24.035Z,100498.97
2023-05-15T19:10:55.433Z,100503.69
2023-05-15T19:13:29.733Z,100527.78
2023-05-15T19:16:01.125Z,100531.53
2023-05-15T19:18:32.446Z,100507.13
2023-05-15T19:21:04.781Z,100515.22
2023-05-15T19:23:36.149Z,100533.78
2023-05-15T19:26:07.464Z,100538.34
2023-05-15T19:28:38.806Z,100528.84
2023-05-15T19:31:20.503Z,100531.63
2023-05-15T19:34:01.532Z,100535.28
2023-05-15T19:36:32.982Z,100539.78
2023-05-15T19:39:04.401Z,100547.63
2023-05-15T19:41:35.815Z,100538.72
2023-05-15T19:44:08.177Z,100540.31
2023-05-15T19:46:39.866Z,100562.91
2023-05-15T19:49:11.449Z,100554.03
2023-05-15T19:51:42.859Z,100538.94
2023-05-15T19:54:15.845Z,100543.31
2023-05-15T19:56:47.117Z,100538.75
2023-05-15T19:59:18.379Z,100547.47
2023-05-15T20:01:49.685Z,100555.41
2023-05-15T20:04:21.494Z,100537.88
2023-05-15T20:06:53.632Z,100545.81
2023-05-15T20:09:29.564Z,100549.31
2023-05-15T20:12:03.168Z,100540.69
2023-05-15T20:14:34.527Z,100558.22
2023-05-15T20:17:06.086Z,100552.91
2023-05-15T20:19:37.375Z,100550.41
2023-05-15T20:22:08.737Z,100560.72
2023-05-15T20:24:40.094Z,100558.94
2023-05-15T20:27:12.010Z,100570.09
2023-05-15T20:29:43.413Z,100568.44
2023-05-15T20:32:14.888Z,100537.91
2023-05-15T20:34:46.588Z,100537.34
2023-05-15T20:37:17.988Z,100560.97
2023-05-15T20:39:49.280Z,100574.00
2023-05-15T20:42:21.647Z,100567.00
2023-05-15T20:44:53.000Z,100580.22
2023-05-15T20:47:24.399Z,100583.91
2023-05-15T20:49:55.702Z,100539.16
2023-05-15T20:52:27.050Z,100576.56
2023-05-15T20:54:58.330Z,100574.00
2023-05-15T20:57:29.823Z,100571.34
2023-05-15T21:00:01.085Z,100574.91
2023-05-15T21:02:32.470Z,100560.13
2023-05-15T21:05:04.302Z,100566.28
2023-05-15T21:07:36.050Z,100540.00
2023-05-15T21:10:07.831Z,100583.06
2023-05-15T21:12:39.768Z,100578.81
2023-05-15T21:15:11.188Z,100581.53
2023-05-15T21:17:42.494Z,100558.75
2023-05-15T21:20:13.786Z,100563.22
2023-05-15T21:22:45.051Z,100578.06
2023-05-15T21:25:18.974Z,100545.72
2023-05-15T21:27:50.230Z,100579.00
2023-05-15T21:30:21.670Z,100578.97
2023-05-15T21:32:53.070Z,100600.19
2023-05-15T21:35:25.383Z,100590.50
2023-05-15T21:37:56.765Z,100592.25
2023-05-15T21:40:29.241Z,100579.22
2023-05-15T21:43:00.655Z,100602.09
2023-05-15T21:45:31.965Z,100605.72
2023-05-15T21:48:03.742Z,100585.72
2023-05-15T21:50:35.043Z,100604.91
2023-05-15T21:53:06.452Z,100604.91
2023-05-15T21:55:37.752Z,100609.19
2023-05-15T21:58:10.190Z,100583.91
2023-05-15T22:00:41.551Z,100578.59
2023-05-15T22:03:13.058Z,100611.03
2023-05-15T22:05:44.763Z,100603.03
2023-05-15T22:08:16.576Z,100604.00
2023-05-15T22:10:48.513Z,100584.88
2023-05-15T22:13:19.791Z,100606.72
2023-05-15T22:15:51.158Z,100593.69
2023-05-15T22:18:23.108Z,100603.38
2023-05-15T22:20:55.213Z,100599.03
2023-05-15T22:23:26.681Z,100602.50
2023-05-15T22:25:58.014Z,100602.47
2023-05-15T22:28:29.336Z,100547.38
2023-05-15T22:31:00.997Z,100606.03
2023-05-15T22:33:32.342Z,100589.44
2023-05-15T22:36:04.467Z,100587.59
2023-05-15T22:38:35.837Z,100599.91
2023-05-15T22:41:08.670Z,100611.41
2023-05-15T22:43:40.016Z,100589.56
2023-05-15T22:46:11.658Z,100617.53
2023-05-15T22:48:42.995Z,100601.72
2023-05-15T22:51:16.115Z,100599.06
2023-05-15T22:53:47.460Z,100600.03
2023-05-15T22:56:18.782Z,100620.94
2023-05-15T22:58:50.230Z,100616.50
2023-05-15T23:01:21.814Z,100594.59
2023-05-15T23:03:53.167Z,100611.25
2023-05-15T23:06:24.598Z,100613.72
2023-05-15T23:08:55.881Z,100594.53
2023-05-15T23:11:28.169Z,100598.78
2023-05-15T23:13:59.506Z,100607.66
2023-05-15T23:16:31.662Z,100610.19
2023-05-15T23:19:03.123Z,100604.91
2023-05-15T23:21:34.617Z,100601.41
2023-05-15T23:24:06.225Z,100604.78
2023-05-15T23:26:37.959Z,100604.78
2023-05-15T23:29:09.409Z,100603.97
2023-05-15T23:31:42.798Z,100587.47
2023-05-15T23:34:14.171Z,100603.91
2023-05-15T23:36:45.609Z,100581.97
2023-05-15T23:39:17.008Z,100603.88
2023-05-15T23:41:48.367Z,100596.81
2023-05-15T23:44:19.659Z,100599.59
2023-05-15T23:46:50.942Z,100586.31
2023-05-15T23:49:22.235Z,100596.00
2023-05-15T23:51:53.582Z,100597.84
2023-05-15T23:54:24.910Z,100611.88
2023-05-15T23:56:56.460Z,100608.34
2023-05-15T23:59:27.780Z,100597.78
